createdAt,value
2019-01-25T00:01:49.894Z,61.37
2019-01-25T00:04:19.224Z,55.43
2019-01-25T00:06:47.745Z,56.37
2019-01-25T00:09:17.171Z,55.90
2019-01-25T00:12:02.440Z,44.40
2019-01-25T00:14:31.174Z,36.63
2019-01-25T00:17:00.511Z,32.27
2019-01-25T00:19:29.817Z,27.90
2019-01-25T00:21:58.243Z,29.20
2019-01-25T00:24:27.565Z,24.50
2019-01-25T00:26:56.886Z,21.30
2019-01-25T00:29:25.421Z,23.47
2019-01-25T00:31:53.826Z,23.67
2019-01-25T00:34:23.150Z,19.53
2019-01-25T00:36:52.475Z,20.57
2019-01-25T00:39:21.806Z,17.20
2019-01-25T00:41:50.229Z,20.07
2019-01-25T00:44:19.563Z,19.13
2019-01-25T00:46:47.998Z,15.97
2019-01-25T00:49:16.521Z,20.57
2019-01-25T00:51:45.846Z,18.07
2019-01-25T00:54:15.183Z,19.17
2019-01-25T00:56:44.506Z,20.93
2019-01-25T00:59:13.846Z,19.50
2019-01-25T01:01:42.269Z,23.27
2019-01-25T01:04:10.792Z,22.60
2019-01-25T01:06:39.431Z,16.83
2019-01-25T01:12:10.564Z,16.57
2019-01-25T01:14:39.099Z,16.63
2019-01-25T01:17:07.810Z,21.20
2019-01-25T01:19:37.150Z,17.33
2019-01-25T01:22:06.478Z,20.00
2019-01-25T01:24:35.818Z,19.30
2019-01-25T01:27:05.143Z,24.67
2019-01-25T01:29:34.465Z,21.53
2019-01-25T01:32:03.319Z,18.43
2019-01-25T01:34:31.938Z,18.40
2019-01-25T01:37:01.233Z,18.17
2019-01-25T01:39:29.849Z,15.60
2019-01-25T01:41:59.176Z,18.57
2019-01-25T01:44:28.495Z,35.37
2019-01-25T01:46:57.828Z,17.03
2019-01-25T01:49:27.170Z,17.20
2019-01-25T01:51:55.584Z,20.77
2019-01-25T01:54:24.115Z,17.80
2019-01-25T01:56:52.533Z,17.27
2019-01-25T01:59:21.864Z,15.83
2019-01-25T02:01:51.198Z,18.70
2019-01-25T02:04:20.519Z,22.43
2019-01-25T02:06:49.039Z,16.17
2019-01-25T02:09:18.434Z,15.93
2019-01-25T02:11:46.950Z,14.20
2019-01-25T02:14:16.378Z,17.10
2019-01-25T02:16:44.808Z,27.77
2019-01-25T02:19:14.139Z,24.23
2019-01-25T02:21:42.561Z,16.70
2019-01-25T02:24:11.086Z,18.10
2019-01-25T02:26:39.508Z,17.63
2019-01-25T02:29:07.962Z,18.93
2019-01-25T02:31:36.494Z,16.30
2019-01-25T02:34:05.821Z,14.97
2019-01-25T02:36:34.446Z,15.50
2019-01-25T02:39:06.840Z,13.07
2019-01-25T02:41:35.267Z,12.43
2019-01-25T02:47:05.924Z,15.80
2019-01-25T02:49:34.540Z,15.40
2019-01-25T02:52:04.440Z,15.33
2019-01-25T02:54:32.864Z,15.50
2019-01-25T02:57:02.285Z,11.87
2019-01-25T02:59:31.614Z,20.10
2019-01-25T03:05:14.966Z,14.07
2019-01-25T03:07:43.479Z,17.40
2019-01-25T03:10:12.353Z,16.03
2019-01-25T03:12:41.667Z,19.90
2019-01-25T03:15:14.024Z,20.87
2019-01-25T03:17:43.451Z,22.40
2019-01-25T03:22:55.716Z,23.27
2019-01-25T03:25:26.385Z,26.27
2019-01-25T03:27:54.907Z,22.37
2019-01-25T03:30:25.227Z,23.83
2019-01-25T03:32:53.769Z,26.43
2019-01-25T03:38:25.780Z,24.63
2019-01-25T03:40:55.636Z,39.73
2019-01-25T03:43:44.344Z,30.80
2019-01-25T03:46:13.657Z,24.90
2019-01-25T03:48:42.994Z,28.17
2019-01-25T03:51:12.321Z,33.50
2019-01-25T03:53:40.844Z,37.03
2019-01-25T03:56:09.369Z,41.77
2019-01-25T03:58:38.687Z,40.40
2019-01-25T04:01:07.108Z,41.20
2019-01-25T04:03:36.425Z,37.53
2019-01-25T04:06:05.755Z,34.97
2019-01-25T04:08:35.176Z,37.27
2019-01-25T04:11:04.727Z,38.03
2019-01-25T04:13:34.505Z,39.53
2019-01-25T04:16:03.274Z,39.70
2019-01-25T04:18:32.618Z,49.47
2019-01-25T04:21:01.136Z,60.83
2019-01-25T04:23:30.444Z,50.47
2019-01-25T04:25:59.776Z,58.17
2019-01-25T04:28:29.091Z,42.90
2019-01-25T04:30:58.417Z,44.67
2019-01-25T04:33:27.742Z,46.57
2019-01-25T04:35:57.067Z,42.13
2019-01-25T04:38:26.379Z,40.83
2019-01-25T04:40:55.756Z,38.93
2019-01-25T04:43:25.775Z,39.60
2019-01-25T04:46:13.493Z,43.27
2019-01-25T04:48:42.025Z,37.63
2019-01-25T04:51:11.351Z,38.47
2019-01-25T04:53:40.670Z,43.53
2019-01-25T04:56:09.993Z,43.13
2019-01-25T04:58:39.298Z,48.70
2019-01-25T05:01:09.778Z,40.63
2019-01-25T05:03:39.093Z,53.70
2019-01-25T05:06:08.525Z,49.70
2019-01-25T05:08:37.043Z,57.30
2019-01-25T05:11:19.760Z,57.03
2019-01-25T05:17:06.762Z,60.10
2019-01-25T05:19:54.652Z,60.93
2019-01-25T05:22:23.984Z,58.80
2019-01-25T05:24:53.310Z,72.93
2019-01-25T05:27:22.637Z,134.13
2019-01-25T05:29:53.851Z,117.67
2019-01-25T05:32:22.274Z,115.33
2019-01-25T05:34:51.595Z,97.73
2019-01-25T05:37:20.911Z,78.67
2019-01-25T05:39:50.256Z,69.10
2019-01-25T05:42:18.888Z,67.43
2019-01-25T05:44:48.212Z,73.97
2019-01-25T05:47:17.555Z,58.53
2019-01-25T05:49:46.885Z,53.10
2019-01-25T05:52:18.406Z,44.53
2019-01-25T05:54:46.836Z,46.60
2019-01-25T05:57:16.166Z,42.73
2019-01-25T05:59:45.499Z,39.17
2019-01-25T06:02:14.821Z,42.53
2019-01-25T06:04:44.140Z,42.50
2019-01-25T06:07:13.516Z,41.07
2019-01-25T06:09:42.826Z,38.17
2019-01-25T06:12:12.175Z,41.47
2019-01-25T06:14:40.697Z,39.27
2019-01-25T06:17:10.041Z,39.07
2019-01-25T06:19:38.475Z,36.83
2019-01-25T06:22:07.783Z,39.13
2019-01-25T06:24:37.111Z,39.50
2019-01-25T06:27:06.455Z,34.90
2019-01-25T06:29:35.008Z,38.13
2019-01-25T06:32:04.646Z,35.30
2019-01-25T06:34:33.963Z,35.60
2019-01-25T06:37:02.676Z,35.40
2019-01-25T06:39:32.004Z,32.80
2019-01-25T06:42:00.529Z,31.43
2019-01-25T06:44:29.866Z,30.20
2019-01-25T06:46:59.202Z,28.87
2019-01-25T06:49:28.535Z,32.40
2019-01-25T06:51:57.875Z,28.80
2019-01-25T06:54:26.371Z,31.10
2019-01-25T06:59:37.869Z,34.00
2019-01-25T07:02:16.826Z,28.77
2019-01-25T07:04:45.273Z,27.03
2019-01-25T07:07:38.897Z,30.13
2019-01-25T07:13:18.483Z,31.90
2019-01-25T07:15:47.119Z,29.37
2019-01-25T07:18:15.674Z,32.53
2019-01-25T07:20:45.000Z,33.03
2019-01-25T07:23:14.335Z,34.77
2019-01-25T07:25:42.878Z,35.57
2019-01-25T07:28:12.230Z,28.83
2019-01-25T07:30:41.859Z,28.23
2019-01-25T07:33:11.418Z,26.87
2019-01-25T07:35:40.789Z,35.27
2019-01-25T07:38:10.105Z,32.13
2019-01-25T07:40:39.435Z,29.63
2019-01-25T07:43:08.814Z,38.13
2019-01-25T07:45:37.190Z,29.53
2019-01-25T07:48:05.967Z,31.07
2019-01-25T07:50:35.311Z,35.00
2019-01-25T07:53:04.842Z,29.77
2019-01-25T07:55:34.244Z,28.57
2019-01-25T08:01:06.094Z,30.87
2019-01-25T08:03:35.544Z,32.03
2019-01-25T08:06:04.888Z,33.70
2019-01-25T08:08:34.233Z,25.50
2019-01-25T08:11:03.749Z,28.73
2019-01-25T08:13:33.063Z,26.93
2019-01-25T08:16:02.404Z,36.20
2019-01-25T08:18:31.729Z,32.20
2019-01-25T08:21:01.070Z,30.57
2019-01-25T08:23:29.489Z,27.53
2019-01-25T08:25:58.807Z,23.90
2019-01-25T08:28:27.231Z,32.17
2019-01-25T08:30:56.601Z,27.17
2019-01-25T08:33:25.913Z,26.93
2019-01-25T08:35:55.268Z,27.70
2019-01-25T08:38:24.722Z,29.03
2019-01-25T08:40:54.621Z,26.47
2019-01-25T08:43:43.321Z,26.13
2019-01-25T08:46:11.897Z,25.23
2019-01-25T08:48:41.407Z,28.13
2019-01-25T08:51:10.224Z,26.43
2019-01-25T08:53:38.781Z,24.10
2019-01-25T08:56:07.329Z,26.27
2019-01-25T08:58:36.677Z,25.87
2019-01-25T09:01:06.003Z,28.10
2019-01-25T09:03:35.323Z,25.20
2019-01-25T09:06:03.867Z,24.87
2019-01-25T09:08:32.412Z,24.60
2019-01-25T09:11:00.841Z,24.67
2019-01-25T09:13:30.201Z,23.53
2019-01-25T09:15:59.534Z,19.93
2019-01-25T09:18:28.285Z,22.03
2019-01-25T09:20:56.817Z,29.70
2019-01-25T09:23:25.274Z,22.77
2019-01-25T09:26:00.767Z,25.03
2019-01-25T09:28:24.045Z,21.77
2019-01-25T09:30:52.479Z,24.80
2019-01-25T09:33:21.817Z,25.57
2019-01-25T09:35:50.348Z,26.37
2019-01-25T09:38:19.686Z,21.27
2019-01-25T09:40:48.109Z,20.83
2019-01-25T09:43:17.501Z,19.93
2019-01-25T09:45:45.962Z,23.40
2019-01-25T09:48:14.515Z,19.50
2019-01-25T09:50:43.083Z,20.67
2019-01-25T09:53:12.437Z,20.90
2019-01-25T09:55:41.758Z,25.50
2019-01-25T09:58:13.127Z,22.33
2019-01-25T10:01:05.537Z,21.70
2019-01-25T10:03:34.080Z,18.60
2019-01-25T10:08:46.092Z,21.37
2019-01-25T10:11:14.584Z,19.17
2019-01-25T10:13:43.918Z,22.53
2019-01-25T10:16:13.312Z,20.57
2019-01-25T10:18:42.634Z,17.77
2019-01-25T10:21:12.106Z,19.07
2019-01-25T10:23:41.433Z,18.67
2019-01-25T10:26:10.770Z,22.43
2019-01-25T10:28:39.302Z,14.83
2019-01-25T10:31:07.953Z,16.00
2019-01-25T10:33:36.382Z,18.37
2019-01-25T10:36:05.820Z,22.83
2019-01-25T10:38:35.143Z,16.73
2019-01-25T10:41:04.580Z,19.37
2019-01-25T10:43:33.908Z,18.47
2019-01-25T10:46:02.434Z,19.13
2019-01-25T10:48:30.957Z,25.03
2019-01-25T10:51:00.430Z,18.10
2019-01-25T10:53:29.822Z,16.30
2019-01-25T10:55:58.480Z,17.07
2019-01-25T10:58:27.807Z,34.63
2019-01-25T11:00:57.127Z,29.13
2019-01-25T11:03:25.559Z,25.77
2019-01-25T11:05:54.085Z,25.50
2019-01-25T11:08:22.620Z,20.10
2019-01-25T11:10:51.047Z,19.67
2019-01-25T11:13:19.579Z,16.77
2019-01-25T11:15:48.915Z,20.20
2019-01-25T11:18:18.251Z,21.63
2019-01-25T11:20:47.595Z,18.43
2019-01-25T11:23:16.035Z,23.20
2019-01-25T11:25:44.571Z,17.57
2019-01-25T11:28:13.926Z,19.47
2019-01-25T11:30:43.267Z,22.70
2019-01-25T11:33:11.681Z,21.97
2019-01-25T11:35:40.213Z,21.60
2019-01-25T11:38:09.565Z,19.83
2019-01-25T11:40:40.389Z,27.73
2019-01-25T11:43:09.285Z,27.33
2019-01-25T11:45:58.047Z,34.20
2019-01-25T11:48:27.387Z,37.80
2019-01-25T11:50:55.913Z,36.77
2019-01-25T11:53:25.246Z,45.03
2019-01-25T11:55:53.770Z,29.13
2019-01-25T11:58:23.106Z,28.80
2019-01-25T12:00:51.645Z,30.30
2019-01-25T12:03:20.989Z,23.67
2019-01-25T12:05:50.325Z,32.67
2019-01-25T12:08:19.756Z,22.67
2019-01-25T12:10:48.284Z,28.57
2019-01-25T12:13:17.017Z,51.77
2019-01-25T12:15:46.349Z,28.50
2019-01-25T12:18:14.987Z,34.67
2019-01-25T12:20:44.322Z,19.57
2019-01-25T12:23:13.664Z,25.70
2019-01-25T12:25:42.996Z,29.37
2019-01-25T12:28:12.348Z,25.23
2019-01-25T12:30:41.668Z,20.43
2019-01-25T12:33:11.017Z,21.40
2019-01-25T12:35:42.214Z,18.83
2019-01-25T12:38:10.814Z,24.23
2019-01-25T12:40:42.459Z,26.67
2019-01-25T12:43:10.680Z,25.37
2019-01-25T12:45:39.407Z,20.53
2019-01-25T12:48:08.052Z,23.40
2019-01-25T12:50:43.010Z,19.63
2019-01-25T12:53:11.741Z,20.23
2019-01-25T12:55:41.175Z,22.20
2019-01-25T12:58:10.674Z,19.50
2019-01-25T13:00:41.206Z,25.33
2019-01-25T13:06:13.404Z,22.93
2019-01-25T13:08:42.831Z,23.07
2019-01-25T13:14:14.920Z,20.57
2019-01-25T13:16:44.271Z,26.17
2019-01-25T13:19:13.600Z,25.17
2019-01-25T13:21:42.956Z,23.00
2019-01-25T13:24:12.360Z,24.63
2019-01-25T13:26:40.890Z,25.23
2019-01-25T13:29:09.424Z,28.00
2019-01-25T13:31:38.756Z,24.00
2019-01-25T13:34:08.173Z,25.53
2019-01-25T13:36:37.595Z,30.07
2019-01-25T13:39:08.775Z,31.10
2019-01-25T13:41:37.431Z,25.27
2019-01-25T13:44:06.762Z,23.60
2019-01-25T13:46:36.088Z,27.57
2019-01-25T13:49:05.417Z,26.93
2019-01-25T13:51:34.760Z,24.27
2019-01-25T13:54:04.203Z,31.80
2019-01-25T13:56:32.753Z,35.97
2019-01-25T13:59:02.212Z,36.93
2019-01-25T14:01:34.684Z,34.80
2019-01-25T14:04:20.797Z,24.87
2019-01-25T14:06:50.143Z,35.43
2019-01-25T14:09:19.470Z,28.57
2019-01-25T14:11:48.814Z,22.67
2019-01-25T14:14:18.140Z,30.40
2019-01-25T14:16:47.475Z,26.00
2019-01-25T14:19:16.799Z,27.93
2019-01-25T14:21:46.131Z,28.03
2019-01-25T14:24:16.672Z,25.40
2019-01-25T14:30:30.466Z,26.07
2019-01-25T14:32:59.796Z,21.43
2019-01-25T14:35:29.385Z,25.73
2019-01-25T14:37:58.520Z,24.60
2019-01-25T14:40:27.730Z,17.73
2019-01-25T14:42:57.219Z,27.83
2019-01-25T14:45:26.894Z,29.67
2019-01-25T14:47:55.519Z,32.13
2019-01-25T14:50:25.881Z,28.00
2019-01-25T14:52:54.722Z,27.97
2019-01-25T14:55:24.164Z,27.67
2019-01-25T14:57:53.712Z,18.50
2019-01-25T15:00:23.048Z,28.37
2019-01-25T15:02:52.392Z,31.57
2019-01-25T15:05:21.328Z,29.87
2019-01-25T15:07:50.668Z,34.00
2019-01-25T15:10:21.899Z,29.23
2019-01-25T15:15:53.374Z,41.87
2019-01-25T15:18:22.803Z,26.23
2019-01-25T15:20:52.264Z,31.23
2019-01-25T15:23:21.597Z,27.33
2019-01-25T15:25:50.224Z,28.97
2019-01-25T15:28:19.563Z,33.57
2019-01-25T15:30:48.899Z,32.07
2019-01-25T15:33:18.245Z,31.90
2019-01-25T15:35:46.806Z,33.83
2019-01-25T15:38:16.130Z,33.17
2019-01-25T15:40:45.464Z,51.53
2019-01-25T15:43:14.804Z,72.23
2019-01-25T15:45:43.226Z,58.40
2019-01-25T15:48:12.552Z,38.70
2019-01-25T15:50:41.486Z,43.90
2019-01-25T15:53:10.824Z,52.87
2019-01-25T15:55:40.250Z,42.93
2019-01-25T15:58:09.587Z,54.47
2019-01-25T16:00:38.968Z,29.30
2019-01-25T16:03:08.242Z,38.13
2019-01-25T16:05:37.585Z,34.33
2019-01-25T16:08:07.036Z,43.00
2019-01-25T16:10:36.388Z,39.37
2019-01-25T16:13:07.055Z,38.53
2019-01-25T16:15:36.431Z,35.13
2019-01-25T16:18:05.837Z,31.90
2019-01-25T16:20:35.967Z,42.30
2019-01-25T16:23:05.456Z,35.83
2019-01-25T16:25:34.981Z,31.83
2019-01-25T16:28:04.342Z,34.90
2019-01-25T16:30:35.469Z,35.13
2019-01-25T16:33:23.776Z,32.30
2019-01-25T16:35:53.104Z,34.97
2019-01-25T16:38:21.531Z,34.60
2019-01-25T16:40:50.860Z,36.70
2019-01-25T16:43:20.182Z,35.57
2019-01-25T16:45:49.510Z,35.43
2019-01-25T16:48:18.833Z,30.33
2019-01-25T16:50:48.167Z,35.03
2019-01-25T16:53:17.492Z,34.73
2019-01-25T16:55:46.834Z,37.27
2019-01-25T16:58:16.168Z,36.50
2019-01-25T17:00:46.284Z,35.37
2019-01-25T17:03:14.955Z,38.53
2019-01-25T17:05:43.651Z,43.13
2019-01-25T17:08:12.683Z,49.47
2019-01-25T17:10:41.426Z,43.80
2019-01-25T17:13:10.577Z,51.93
2019-01-25T17:15:39.405Z,49.63
2019-01-25T17:18:08.961Z,47.50
2019-01-25T17:20:37.509Z,47.87
2019-01-25T17:23:06.058Z,38.73
2019-01-25T17:25:34.494Z,44.93
2019-01-25T17:28:05.696Z,32.40
2019-01-25T17:30:34.872Z,33.73
2019-01-25T17:36:06.612Z,31.67
2019-01-25T17:38:35.947Z,38.33
2019-01-25T17:41:05.379Z,29.27
2019-01-25T17:43:34.706Z,32.83
2019-01-25T17:46:04.137Z,30.30
2019-01-25T17:48:33.477Z,33.70
2019-01-25T17:51:02.815Z,42.03
2019-01-25T17:53:32.155Z,38.03
2019-01-25T17:56:01.561Z,35.63
2019-01-25T17:58:30.909Z,30.23
2019-01-25T18:00:59.637Z,32.60
2019-01-25T18:03:29.103Z,33.27
2019-01-25T18:05:58.440Z,37.03
2019-01-25T18:08:27.812Z,33.13
2019-01-25T18:10:57.148Z,35.17
2019-01-25T18:13:26.477Z,40.83
2019-01-25T18:15:55.825Z,35.47
2019-01-25T18:18:41.274Z,36.50
2019-01-25T18:21:09.805Z,40.67
2019-01-25T18:23:39.173Z,41.50
2019-01-25T18:26:11.297Z,40.50
2019-01-25T18:29:18.452Z,26.70
2019-01-25T18:31:46.987Z,42.63
2019-01-25T18:34:16.416Z,42.97
2019-01-25T18:36:44.951Z,43.73
2019-01-25T18:39:14.292Z,33.67
2019-01-25T18:41:44.913Z,39.17
2019-01-25T18:44:14.270Z,31.37
2019-01-25T18:46:42.804Z,29.33
2019-01-25T18:49:12.152Z,40.00
2019-01-25T18:51:40.696Z,44.90
2019-01-25T18:54:10.022Z,33.10
2019-01-25T18:56:40.061Z,34.33
2019-01-25T18:59:08.482Z,37.97
2019-01-25T19:01:37.838Z,43.57
2019-01-25T19:04:07.276Z,46.23
2019-01-25T19:06:35.802Z,45.70
2019-01-25T19:12:08.312Z,34.53
2019-01-25T19:14:37.640Z,40.20
2019-01-25T19:17:06.078Z,28.27
2019-01-25T19:19:34.718Z,37.00
2019-01-25T19:22:03.268Z,37.17
2019-01-25T19:24:32.642Z,35.17
2019-01-25T19:27:01.977Z,36.77
2019-01-25T19:29:31.319Z,41.33
2019-01-25T19:32:00.852Z,29.37
2019-01-25T19:34:29.382Z,33.07
2019-01-25T19:36:58.732Z,37.33
2019-01-25T19:39:28.061Z,35.27
2019-01-25T19:41:56.502Z,37.57
2019-01-25T19:44:25.269Z,42.57
2019-01-25T19:49:58.764Z,50.43
2019-01-25T19:52:28.112Z,52.73
2019-01-25T19:54:56.859Z,37.00
2019-01-25T19:57:25.319Z,40.47
2019-01-25T19:59:54.667Z,43.23
2019-01-25T20:02:24.013Z,51.03
2019-01-25T20:04:53.377Z,41.37
2019-01-25T20:07:22.733Z,32.10
2019-01-25T20:09:52.196Z,42.77
2019-01-25T20:12:21.537Z,31.80
2019-01-25T20:14:50.892Z,27.23
2019-01-25T20:17:19.431Z,36.33
2019-01-25T20:19:48.102Z,27.93
2019-01-25T20:22:17.512Z,33.90
2019-01-25T20:24:46.830Z,35.70
2019-01-25T20:27:15.359Z,40.23
2019-01-25T20:29:44.675Z,32.93
2019-01-25T20:32:14.029Z,29.90
2019-01-25T20:34:43.364Z,34.33
2019-01-25T20:37:14.598Z,39.70
2019-01-25T20:39:43.924Z,31.47
2019-01-25T20:42:13.255Z,28.77
2019-01-25T20:44:42.573Z,27.23
2019-01-25T20:47:11.111Z,29.17
2019-01-25T20:49:39.772Z,27.53
2019-01-25T20:52:09.314Z,28.60
2019-01-25T20:54:38.643Z,38.73
2019-01-25T20:57:07.985Z,41.97
2019-01-25T21:02:20.188Z,38.77
2019-01-25T21:04:49.526Z,31.97
2019-01-25T21:07:18.853Z,29.23
2019-01-25T21:09:48.285Z,33.33
2019-01-25T21:12:17.611Z,35.20
2019-01-25T21:14:46.956Z,32.47
2019-01-25T21:17:16.288Z,27.63
2019-01-25T21:19:45.630Z,33.43
2019-01-25T21:22:14.165Z,34.67
2019-01-25T21:24:43.197Z,29.67
2019-01-25T21:30:09.902Z,28.13
2019-01-25T21:32:38.731Z,27.57
2019-01-25T21:37:51.207Z,20.40
2019-01-25T21:40:22.452Z,17.87
2019-01-25T21:42:51.275Z,17.90
2019-01-25T21:45:22.206Z,17.63
2019-01-25T21:47:51.646Z,14.67
2019-01-25T21:50:23.608Z,15.60
2019-01-25T21:52:52.196Z,25.40
2019-01-25T21:55:20.623Z,20.53
2019-01-25T21:57:50.017Z,13.17
2019-01-25T22:00:20.956Z,13.33
2019-01-25T22:02:50.294Z,12.23
2019-01-25T22:05:19.961Z,13.77
2019-01-25T22:07:48.587Z,12.83
2019-01-25T22:10:37.703Z,13.47
2019-01-25T22:13:06.159Z,14.53
2019-01-25T22:15:35.497Z,15.77
2019-01-25T22:18:05.071Z,15.97
2019-01-25T22:20:34.664Z,18.23
2019-01-25T22:23:04.208Z,17.93
2019-01-25T22:25:32.842Z,17.93
2019-01-25T22:28:02.170Z,17.63
2019-01-25T22:30:31.609Z,15.63
2019-01-25T22:33:00.260Z,14.13
2019-01-25T22:35:28.773Z,16.53
2019-01-25T22:37:57.203Z,14.73
2019-01-25T22:40:27.655Z,17.70
2019-01-25T22:42:56.442Z,19.27
2019-01-25T22:45:26.786Z,14.83
2019-01-25T22:47:56.622Z,12.43
2019-01-25T22:50:27.103Z,13.83
2019-01-25T22:52:55.708Z,12.53
2019-01-25T22:55:25.099Z,17.07
2019-01-25T22:57:54.438Z,12.13
2019-01-25T23:00:55.987Z,15.27
2019-01-25T23:03:46.697Z,18.50
2019-01-25T23:06:36.810Z,15.60
2019-01-25T23:09:29.895Z,14.87
2019-01-25T23:11:58.518Z,19.90
2019-01-25T23:14:27.847Z,20.30
2019-01-25T23:16:57.168Z,16.23
2019-01-25T23:19:26.508Z,17.03
2019-01-25T23:21:55.240Z,16.70
2019-01-25T23:24:24.567Z,16.53
2019-01-25T23:26:53.892Z,18.17
2019-01-25T23:29:23.225Z,17.57
2019-01-25T23:31:51.755Z,15.83
2019-01-25T23:34:21.114Z,19.70
2019-01-25T23:36:50.446Z,28.03
2019-01-25T23:42:22.595Z,18.43
2019-01-25T23:44:51.017Z,17.27
2019-01-25T23:47:19.546Z,24.00
2019-01-25T23:49:48.895Z,15.83
2019-01-25T23:52:18.218Z,20.40
2019-01-25T23:54:47.554Z,21.80
2019-01-25T23:57:16.887Z,18.80
2019-01-25T23:59:46.209Z,28.63
